sensor_id;sensor_type;location;lat;lon;timestamp;temperature;humidity
21108;DHT22;10712;52.944;9.098;2023-03-01T00:00:50;-1.50;80.40
21108;DHT22;10712;52.944;9.098;2023-03-01T00:03:15;-1.60;80.70
21108;DHT22;10712;52.944;9.098;2023-03-01T00:05:45;-1.50;80.70
21108;DHT22;10712;52.944;9.098;2023-03-01T00:08:12;-1.50;80.30
21108;DHT22;10712;52.944;9.098;2023-03-01T00:10:38;-1.60;80.00
21108;DHT22;10712;52.944;9.098;2023-03-01T00:13:04;-1.60;80.30
21108;DHT22;10712;52.944;9.098;2023-03-01T00:15:31;-1.70;80.50
21108;DHT22;10712;52.944;9.098;2023-03-01T00:17:57;-1.70;80.70
21108;DHT22;10712;52.944;9.098;2023-03-01T00:20:23;-1.70;81.00
21108;DHT22;10712;52.944;9.098;2023-03-01T00:22:49;-1.70;81.00
21108;DHT22;10712;52.944;9.098;2023-03-01T00:25:15;-1.70;81.10
21108;DHT22;10712;52.944;9.098;2023-03-01T00:27:40;-1.70;81.00
21108;DHT22;10712;52.944;9.098;2023-03-01T00:30:07;-1.70;81.00
21108;DHT22;10712;52.944;9.098;2023-03-01T00:32:34;-1.70;80.70
21108;DHT22;10712;52.944;9.098;2023-03-01T00:35:00;-1.70;80.70
21108;DHT22;10712;52.944;9.098;2023-03-01T00:37:26;-1.80;80.80
21108;DHT22;10712;52.944;9.098;2023-03-01T00:39:51;-1.80;81.00
21108;DHT22;10712;52.944;9.098;2023-03-01T00:42:17;-1.80;81.30
21108;DHT22;10712;52.944;9.098;2023-03-01T00:44:43;-1.80;81.40
21108;DHT22;10712;52.944;9.098;2023-03-01T00:47:09;-1.80;81.40
21108;DHT22;10712;52.944;9.098;2023-03-01T00:49:35;-1.80;81.70
21108;DHT22;10712;52.944;9.098;2023-03-01T00:52:00;-1.80;81.90
21108;DHT22;10712;52.944;9.098;2023-03-01T00:54:27;-1.80;81.70
21108;DHT22;10712;52.944;9.098;2023-03-01T00:56:52;-1.80;81.60
21108;DHT22;10712;52.944;9.098;2023-03-01T00:59:18;-1.80;81.30
21108;DHT22;10712;52.944;9.098;2023-03-01T01:01:44;-1.80;81.30
21108;DHT22;10712;52.944;9.098;2023-03-01T01:04:12;-1.80;81.50
21108;DHT22;10712;52.944;9.098;2023-03-01T01:06:42;-1.90;82.10
21108;DHT22;10712;52.944;9.098;2023-03-01T01:09:12;-1.90;82.40
21108;DHT22;10712;52.944;9.098;2023-03-01T01:11:44;-1.80;82.40
21108;DHT22;10712;52.944;9.098;2023-03-01T01:14:14;-1.80;82.60
21108;DHT22;10712;52.944;9.098;2023-03-01T01:16:40;-1.90;82.20
21108;DHT22;10712;52.944;9.098;2023-03-01T01:19:06;-1.90;81.80
21108;DHT22;10712;52.944;9.098;2023-03-01T01:21:32;-2.00;81.90
21108;DHT22;10712;52.944;9.098;2023-03-01T01:23:58;-2.00;81.90
21108;DHT22;10712;52.944;9.098;2023-03-01T01:26:27;-2.10;81.90
21108;DHT22;10712;52.944;9.098;2023-03-01T01:28:55;-2.10;81.90
21108;DHT22;10712;52.944;9.098;2023-03-01T01:31:22;-2.10;81.90
21108;DHT22;10712;52.944;9.098;2023-03-01T01:33:51;-2.20;81.80
21108;DHT22;10712;52.944;9.098;2023-03-01T01:36:18;-2.30;81.80
21108;DHT22;10712;52.944;9.098;2023-03-01T01:38:44;-2.40;81.90
21108;DHT22;10712;52.944;9.098;2023-03-01T01:41:11;-2.40;82.10
21108;DHT22;10712;52.944;9.098;2023-03-01T01:43:44;-2.40;82.70
21108;DHT22;10712;52.944;9.098;2023-03-01T01:46:30;-2.40;83.10
21108;DHT22;10712;52.944;9.098;2023-03-01T01:49:01;-2.40;83.10
21108;DHT22;10712;52.944;9.098;2023-03-01T01:51:38;-2.30;83.20
21108;DHT22;10712;52.944;9.098;2023-03-01T01:54:14;-2.30;83.10
21108;DHT22;10712;52.944;9.098;2023-03-01T01:56:50;-2.30;83.10
21108;DHT22;10712;52.944;9.098;2023-03-01T01:59:20;-2.30;83.00
21108;DHT22;10712;52.944;9.098;2023-03-01T02:01:51;-2.30;82.90
21108;DHT22;10712;52.944;9.098;2023-03-01T02:04:18;-2.30;82.80
21108;DHT22;10712;52.944;9.098;2023-03-01T02:06:49;-2.30;82.60
21108;DHT22;10712;52.944;9.098;2023-03-01T02:09:22;-2.30;82.80
21108;DHT22;10712;52.944;9.098;2023-03-01T02:11:50;-2.30;83.00
21108;DHT22;10712;52.944;9.098;2023-03-01T02:14:17;-2.30;83.10
21108;DHT22;10712;52.944;9.098;2023-03-01T02:16:43;-2.30;83.10
21108;DHT22;10712;52.944;9.098;2023-03-01T02:19:21;-2.30;83.10
21108;DHT22;10712;52.944;9.098;2023-03-01T02:22:07;-2.30;83.00
21108;DHT22;10712;52.944;9.098;2023-03-01T02:27:22;-2.30;82.60
21108;DHT22;10712;52.944;9.098;2023-03-01T02:29:54;-2.30;82.50
21108;DHT22;10712;52.944;9.098;2023-03-01T02:32:20;-2.40;82.40
21108;DHT22;10712;52.944;9.098;2023-03-01T02:34:54;-2.40;82.50
21108;DHT22;10712;52.944;9.098;2023-03-01T02:37:22;-2.40;82.30
21108;DHT22;10712;52.944;9.098;2023-03-01T02:39:57;-2.40;82.20
21108;DHT22;10712;52.944;9.098;2023-03-01T02:42:31;-2.40;82.30
21108;DHT22;10712;52.944;9.098;2023-03-01T02:44:59;-2.40;82.20
21108;DHT22;10712;52.944;9.098;2023-03-01T02:47:25;-2.40;82.00
21108;DHT22;10712;52.944;9.098;2023-03-01T02:49:51;-2.50;81.90
21108;DHT22;10712;52.944;9.098;2023-03-01T02:55:13;-2.50;82.50
21108;DHT22;10712;52.944;9.098;2023-03-01T02:57:44;-2.50;82.60
21108;DHT22;10712;52.944;9.098;2023-03-01T03:00:17;-2.50;82.70
21108;DHT22;10712;52.944;9.098;2023-03-01T03:02:48;-2.50;82.40
21108;DHT22;10712;52.944;9.098;2023-03-01T03:05:24;-2.60;82.00
21108;DHT22;10712;52.944;9.098;2023-03-01T03:07:58;-2.60;82.10
21108;DHT22;10712;52.944;9.098;2023-03-01T03:10:34;-2.60;82.50
21108;DHT22;10712;52.944;9.098;2023-03-01T03:13:05;-2.60;82.60
21108;DHT22;10712;52.944;9.098;2023-03-01T03:15:34;-2.70;82.60
21108;DHT22;10712;52.944;9.098;2023-03-01T03:18:03;-2.60;82.70
21108;DHT22;10712;52.944;9.098;2023-03-01T03:20:34;-2.60;82.70
21108;DHT22;10712;52.944;9.098;2023-03-01T03:23:01;-2.60;82.60
21108;DHT22;10712;52.944;9.098;2023-03-01T03:25:28;-2.60;82.50
21108;DHT22;10712;52.944;9.098;2023-03-01T03:27:55;-2.60;82.50
21108;DHT22;10712;52.944;9.098;2023-03-01T03:30:24;-2.60;82.50
21108;DHT22;10712;52.944;9.098;2023-03-01T03:32:52;-2.60;82.60
21108;DHT22;10712;52.944;9.098;2023-03-01T03:35:27;-2.70;82.70
21108;DHT22;10712;52.944;9.098;2023-03-01T03:38:05;-2.70;82.50
21108;DHT22;10712;52.944;9.098;2023-03-01T03:40:38;-2.80;82.10
21108;DHT22;10712;52.944;9.098;2023-03-01T03:43:08;-2.80;82.40
21108;DHT22;10712;52.944;9.098;2023-03-01T03:45:36;-2.80;82.50
21108;DHT22;10712;52.944;9.098;2023-03-01T03:48:04;-2.80;82.70
21108;DHT22;10712;52.944;9.098;2023-03-01T03:50:32;-2.80;82.70
21108;DHT22;10712;52.944;9.098;2023-03-01T03:53:01;-2.80;82.60
21108;DHT22;10712;52.944;9.098;2023-03-01T03:55:29;-2.90;82.50
21108;DHT22;10712;52.944;9.098;2023-03-01T03:57:59;-2.90;82.10
21108;DHT22;10712;52.944;9.098;2023-03-01T04:00:40;-2.90;82.10
21108;DHT22;10712;52.944;9.098;2023-03-01T04:03:10;-3.00;82.60
21108;DHT22;10712;52.944;9.098;2023-03-01T04:05:38;-3.00;82.40
21108;DHT22;10712;52.944;9.098;2023-03-01T04:08:05;-3.10;82.50
21108;DHT22;10712;52.944;9.098;2023-03-01T04:10:41;-3.10;82.70
21108;DHT22;10712;52.944;9.098;2023-03-01T04:13:14;-3.10;83.00
21108;DHT22;10712;52.944;9.098;2023-03-01T04:15:42;-3.00;83.10
21108;DHT22;10712;52.944;9.098;2023-03-01T04:18:12;-3.00;83.10
21108;DHT22;10712;52.944;9.098;2023-03-01T04:20:41;-3.00;82.70
21108;DHT22;10712;52.944;9.098;2023-03-01T04:23:13;-3.10;82.70
21108;DHT22;10712;52.944;9.098;2023-03-01T04:25:49;-3.10;82.60
21108;DHT22;10712;52.944;9.098;2023-03-01T04:28:22;-3.10;82.70
21108;DHT22;10712;52.944;9.098;2023-03-01T04:30:50;-3.10;82.90
21108;DHT22;10712;52.944;9.098;2023-03-01T04:33:17;-3.10;82.80
21108;DHT22;10712;52.944;9.098;2023-03-01T04:35:44;-3.10;82.90
21108;DHT22;10712;52.944;9.098;2023-03-01T04:38:10;-3.10;82.70
21108;DHT22;10712;52.944;9.098;2023-03-01T04:40:37;-3.10;82.60
21108;DHT22;10712;52.944;9.098;2023-03-01T04:43:03;-3.10;82.80
21108;DHT22;10712;52.944;9.098;2023-03-01T04:45:31;-3.10;83.10
21108;DHT22;10712;52.944;9.098;2023-03-01T04:47:59;-3.10;83.20
21108;DHT22;10712;52.944;9.098;2023-03-01T04:50:25;-3.10;83.20
21108;DHT22;10712;52.944;9.098;2023-03-01T04:52:51;-3.10;83.20
21108;DHT22;10712;52.944;9.098;2023-03-01T04:55:17;-3.10;83.20
21108;DHT22;10712;52.944;9.098;2023-03-01T04:57:43;-3.10;83.20
21108;DHT22;10712;52.944;9.098;2023-03-01T05:00:11;-3.10;83.20
21108;DHT22;10712;52.944;9.098;2023-03-01T05:02:59;-3.10;82.80
21108;DHT22;10712;52.944;9.098;2023-03-01T05:05:35;-3.10;82.60
21108;DHT22;10712;52.944;9.098;2023-03-01T05:08:05;-3.20;82.40
21108;DHT22;10712;52.944;9.098;2023-03-01T05:10:34;-3.20;82.70
21108;DHT22;10712;52.944;9.098;2023-03-01T05:13:02;-3.20;82.80
21108;DHT22;10712;52.944;9.098;2023-03-01T05:15:30;-3.20;82.80
21108;DHT22;10712;52.944;9.098;2023-03-01T05:17:58;-3.20;82.80
21108;DHT22;10712;52.944;9.098;2023-03-01T05:20:29;-3.30;82.70
21108;DHT22;10712;52.944;9.098;2023-03-01T05:23:00;-3.30;82.90
21108;DHT22;10712;52.944;9.098;2023-03-01T05:25:26;-3.30;82.40
21108;DHT22;10712;52.944;9.098;2023-03-01T05:27:52;-3.40;82.20
21108;DHT22;10712;52.944;9.098;2023-03-01T05:30:18;-3.40;82.10
21108;DHT22;10712;52.944;9.098;2023-03-01T05:32:47;-3.50;82.50
21108;DHT22;10712;52.944;9.098;2023-03-01T05:35:16;-3.50;83.00
21108;DHT22;10712;52.944;9.098;2023-03-01T05:37:45;-3.50;83.30
21108;DHT22;10712;52.944;9.098;2023-03-01T05:40:15;-3.50;83.20
21108;DHT22;10712;52.944;9.098;2023-03-01T05:42:50;-3.50;83.20
21108;DHT22;10712;52.944;9.098;2023-03-01T05:45:20;-3.50;82.80
21108;DHT22;10712;52.944;9.098;2023-03-01T05:47:48;-3.50;82.80
21108;DHT22;10712;52.944;9.098;2023-03-01T05:50:23;-3.50;83.30
21108;DHT22;10712;52.944;9.098;2023-03-01T05:55:28;-3.50;83.60
21108;DHT22;10712;52.944;9.098;2023-03-01T05:57:54;-3.50;83.60
21108;DHT22;10712;52.944;9.098;2023-03-01T06:00:21;-3.50;83.60
21108;DHT22;10712;52.944;9.098;2023-03-01T06:02:50;-3.40;83.40
21108;DHT22;10712;52.944;9.098;2023-03-01T06:05:17;-3.40;83.30
21108;DHT22;10712;52.944;9.098;2023-03-01T06:07:43;-3.40;83.40
21108;DHT22;10712;52.944;9.098;2023-03-01T06:10:10;-3.50;83.70
21108;DHT22;10712;52.944;9.098;2023-03-01T06:12:39;-3.40;84.10
21108;DHT22;10712;52.944;9.098;2023-03-01T06:15:07;-3.40;84.00
21108;DHT22;10712;52.944;9.098;2023-03-01T06:17:39;-3.40;84.00
21108;DHT22;10712;52.944;9.098;2023-03-01T06:20:11;-3.40;84.10
21108;DHT22;10712;52.944;9.098;2023-03-01T06:22:40;-3.40;84.40
21108;DHT22;10712;52.944;9.098;2023-03-01T06:25:08;-3.40;84.70
21108;DHT22;10712;52.944;9.098;2023-03-01T06:27:34;-3.40;84.80
21108;DHT22;10712;52.944;9.098;2023-03-01T06:30:00;-3.40;84.50
21108;DHT22;10712;52.944;9.098;2023-03-01T06:32:27;-3.40;84.40
21108;DHT22;10712;52.944;9.098;2023-03-01T06:34:52;-3.40;84.60
21108;DHT22;10712;52.944;9.098;2023-03-01T06:37:18;-3.40;84.40
21108;DHT22;10712;52.944;9.098;2023-03-01T06:39:44;-3.40;84.30
21108;DHT22;10712;52.944;9.098;2023-03-01T06:42:09;-3.40;84.40
21108;DHT22;10712;52.944;9.098;2023-03-01T06:44:36;-3.40;84.60
21108;DHT22;10712;52.944;9.098;2023-03-01T06:47:03;-3.40;84.90
21108;DHT22;10712;52.944;9.098;2023-03-01T06:49:29;-3.40;84.30
21108;DHT22;10712;52.944;9.098;2023-03-01T06:51:56;-3.50;84.50
21108;DHT22;10712;52.944;9.098;2023-03-01T06:54:22;-3.50;84.90
21108;DHT22;10712;52.944;9.098;2023-03-01T06:56:49;-3.40;85.40
21108;DHT22;10712;52.944;9.098;2023-03-01T06:59:16;-3.40;85.30
21108;DHT22;10712;52.944;9.098;2023-03-01T07:01:42;-3.40;85.30
21108;DHT22;10712;52.944;9.098;2023-03-01T07:04:09;-3.30;85.60
21108;DHT22;10712;52.944;9.098;2023-03-01T07:06:36;-3.30;85.80
21108;DHT22;10712;52.944;9.098;2023-03-01T07:09:02;-3.20;85.80
21108;DHT22;10712;52.944;9.098;2023-03-01T07:11:28;-3.20;85.60
21108;DHT22;10712;52.944;9.098;2023-03-01T07:13:53;-3.20;86.00
21108;DHT22;10712;52.944;9.098;2023-03-01T07:16:20;-3.10;86.20
21108;DHT22;10712;52.944;9.098;2023-03-01T07:18:46;-3.10;86.10
21108;DHT22;10712;52.944;9.098;2023-03-01T07:21:13;-3.00;86.10
21108;DHT22;10712;52.944;9.098;2023-03-01T07:23:40;-3.00;86.20
21108;DHT22;10712;52.944;9.098;2023-03-01T07:26:07;-2.90;86.20
21108;DHT22;10712;52.944;9.098;2023-03-01T07:28:32;-2.90;86.30
21108;DHT22;10712;52.944;9.098;2023-03-01T07:31:04;-2.80;86.40
21108;DHT22;10712;52.944;9.098;2023-03-01T07:33:31;-2.80;86.40
21108;DHT22;10712;52.944;9.098;2023-03-01T07:35:59;-2.70;86.50
21108;DHT22;10712;52.944;9.098;2023-03-01T07:38:27;-2.70;86.60
21108;DHT22;10712;52.944;9.098;2023-03-01T07:40:57;-2.60;86.40
21108;DHT22;10712;52.944;9.098;2023-03-01T07:43:30;-2.60;86.60
21108;DHT22;10712;52.944;9.098;2023-03-01T07:46:00;-2.50;86.70
21108;DHT22;10712;52.944;9.098;2023-03-01T07:48:27;-2.40;86.80
21108;DHT22;10712;52.944;9.098;2023-03-01T07:50:54;-2.40;86.80
21108;DHT22;10712;52.944;9.098;2023-03-01T07:53:20;-2.30;86.80
21108;DHT22;10712;52.944;9.098;2023-03-01T07:55:46;-2.30;86.80
21108;DHT22;10712;52.944;9.098;2023-03-01T07:58:11;-2.20;86.90
21108;DHT22;10712;52.944;9.098;2023-03-01T08:00:37;-2.10;87.00
21108;DHT22;10712;52.944;9.098;2023-03-01T08:03:03;-2.00;87.00
21108;DHT22;10712;52.944;9.098;2023-03-01T08:05:29;-1.90;87.10
21108;DHT22;10712;52.944;9.098;2023-03-01T08:07:55;-1.90;87.10
21108;DHT22;10712;52.944;9.098;2023-03-01T08:10:21;-1.80;87.10
21108;DHT22;10712;52.944;9.098;2023-03-01T08:12:47;-1.80;87.10
21108;DHT22;10712;52.944;9.098;2023-03-01T08:15:12;-1.70;87.10
21108;DHT22;10712;52.944;9.098;2023-03-01T08:17:38;-1.70;87.10
21108;DHT22;10712;52.944;9.098;2023-03-01T08:20:05;-1.60;87.10
21108;DHT22;10712;52.944;9.098;2023-03-01T08:22:32;-1.50;87.20
21108;DHT22;10712;52.944;9.098;2023-03-01T08:24:58;-1.50;87.20
21108;DHT22;10712;52.944;9.098;2023-03-01T08:27:24;-1.40;87.10
21108;DHT22;10712;52.944;9.098;2023-03-01T08:29:49;-1.40;87.00
21108;DHT22;10712;52.944;9.098;2023-03-01T08:32:15;-1.30;87.00
21108;DHT22;10712;52.944;9.098;2023-03-01T08:34:41;-1.20;86.90
21108;DHT22;10712;52.944;9.098;2023-03-01T08:37:07;-1.20;87.10
21108;DHT22;10712;52.944;9.098;2023-03-01T08:39:32;-1.10;87.00
21108;DHT22;10712;52.944;9.098;2023-03-01T08:41:58;-1.10;87.30
21108;DHT22;10712;52.944;9.098;2023-03-01T08:44:24;-0.90;87.50
21108;DHT22;10712;52.944;9.098;2023-03-01T08:46:50;-0.90;87.50
21108;DHT22;10712;52.944;9.098;2023-03-01T08:49:19;-0.80;87.50
21108;DHT22;10712;52.944;9.098;2023-03-01T08:51:46;-0.70;87.50
21108;DHT22;10712;52.944;9.098;2023-03-01T08:54:15;-0.60;87.40
21108;DHT22;10712;52.944;9.098;2023-03-01T08:56:42;-0.60;87.40
21108;DHT22;10712;52.944;9.098;2023-03-01T08:59:10;-0.50;87.40
21108;DHT22;10712;52.944;9.098;2023-03-01T09:01:36;-0.40;87.50
21108;DHT22;10712;52.944;9.098;2023-03-01T09:04:02;-0.30;87.60
21108;DHT22;10712;52.944;9.098;2023-03-01T09:06:31;-0.20;87.50
21108;DHT22;10712;52.944;9.098;2023-03-01T09:08:58;-0.10;87.40
21108;DHT22;10712;52.944;9.098;2023-03-01T09:11:24;0.00;87.30
21108;DHT22;10712;52.944;9.098;2023-03-01T09:13:50;0.10;87.10
21108;DHT22;10712;52.944;9.098;2023-03-01T09:16:19;0.10;86.90
21108;DHT22;10712;52.944;9.098;2023-03-01T09:18:50;0.20;86.70
21108;DHT22;10712;52.944;9.098;2023-03-01T09:21:18;0.30;86.50
21108;DHT22;10712;52.944;9.098;2023-03-01T09:23:47;0.30;86.40
21108;DHT22;10712;52.944;9.098;2023-03-01T09:26:18;0.40;86.20
21108;DHT22;10712;52.944;9.098;2023-03-01T09:28:52;0.50;85.80
21108;DHT22;10712;52.944;9.098;2023-03-01T09:31:20;0.60;85.70
21108;DHT22;10712;52.944;9.098;2023-03-01T09:33:49;0.80;85.60
21108;DHT22;10712;52.944;9.098;2023-03-01T09:36:19;1.00;85.10
21108;DHT22;10712;52.944;9.098;2023-03-01T09:38:47;1.10;84.70
21108;DHT22;10712;52.944;9.098;2023-03-01T09:44:30;1.30;83.80
21108;DHT22;10712;52.944;9.098;2023-03-01T09:47:19;1.40;83.20
21108;DHT22;10712;52.944;9.098;2023-03-01T09:50:12;1.60;81.90
21108;DHT22;10712;52.944;9.098;2023-03-01T09:55:19;1.80;80.50
21108;DHT22;10712;52.944;9.098;2023-03-01T10:01:02;2.00;80.00
21108;DHT22;10712;52.944;9.098;2023-03-01T10:06:34;2.20;79.40
21108;DHT22;10712;52.944;9.098;2023-03-01T10:09:11;2.30;79.40
21108;DHT22;10712;52.944;9.098;2023-03-01T10:11:46;2.40;79.20
21108;DHT22;10712;52.944;9.098;2023-03-01T10:18:11;2.70;78.70
21108;DHT22;10712;52.944;9.098;2023-03-01T10:20:45;2.80;78.60
21108;DHT22;10712;52.944;9.098;2023-03-01T10:23:17;2.90;78.50
21108;DHT22;10712;52.944;9.098;2023-03-01T10:28:44;3.10;77.40
21108;DHT22;10712;52.944;9.098;2023-03-01T10:31:24;3.20;76.60
21108;DHT22;10712;52.944;9.098;2023-03-01T10:33:54;3.30;75.60
21108;DHT22;10712;52.944;9.098;2023-03-01T10:36:23;3.40;75.40
21108;DHT22;10712;52.944;9.098;2023-03-01T10:38:53;3.50;75.30
21108;DHT22;10712;52.944;9.098;2023-03-01T10:41:23;3.60;75.40
21108;DHT22;10712;52.944;9.098;2023-03-01T10:43:58;3.70;75.10
21108;DHT22;10712;52.944;9.098;2023-03-01T10:46:34;3.80;74.90
21108;DHT22;10712;52.944;9.098;2023-03-01T10:49:20;3.90;74.70
21108;DHT22;10712;52.944;9.098;2023-03-01T10:51:49;4.00;74.10
21108;DHT22;10712;52.944;9.098;2023-03-01T10:57:00;4.30;73.30
21108;DHT22;10712;52.944;9.098;2023-03-01T10:59:36;4.40;72.80
21108;DHT22;10712;52.944;9.098;2023-03-01T11:02:22;4.50;72.30
21108;DHT22;10712;52.944;9.098;2023-03-01T11:05:18;4.50;72.10
21108;DHT22;10712;52.944;9.098;2023-03-01T11:07:54;4.60;71.80
21108;DHT22;10712;52.944;9.098;2023-03-01T11:10:35;4.70;71.70
21108;DHT22;10712;52.944;9.098;2023-03-01T11:13:27;4.80;71.50
21108;DHT22;10712;52.944;9.098;2023-03-01T11:16:02;4.90;71.50
21108;DHT22;10712;52.944;9.098;2023-03-01T11:18:32;5.00;71.20
21108;DHT22;10712;52.944;9.098;2023-03-01T11:20:59;5.20;70.10
21108;DHT22;10712;52.944;9.098;2023-03-01T11:23:29;5.30;69.80
21108;DHT22;10712;52.944;9.098;2023-03-01T11:26:02;5.40;69.70
21108;DHT22;10712;52.944;9.098;2023-03-01T11:28:36;5.40;69.90
21108;DHT22;10712;52.944;9.098;2023-03-01T11:31:09;5.50;69.90
21108;DHT22;10712;52.944;9.098;2023-03-01T11:39:38;5.70;69.90
21108;DHT22;10712;52.944;9.098;2023-03-01T11:42:17;5.80;69.50
21108;DHT22;10712;52.944;9.098;2023-03-01T11:44:54;5.80;69.60
21108;DHT22;10712;52.944;9.098;2023-03-01T11:53:31;6.00;69.80
21108;DHT22;10712;52.944;9.098;2023-03-01T11:59:29;6.20;69.00
21108;DHT22;10712;52.944;9.098;2023-03-01T12:07:41;6.60;69.30
21108;DHT22;10712;52.944;9.098;2023-03-01T12:19:10;7.00;69.10
21108;DHT22;10712;52.944;9.098;2023-03-01T12:25:08;7.00;68.40
21108;DHT22;10712;52.944;9.098;2023-03-01T12:28:12;6.90;68.90
21108;DHT22;10712;52.944;9.098;2023-03-01T12:46:25;7.00;68.60
21108;DHT22;10712;52.944;9.098;2023-03-01T12:49:13;7.00;68.70
21108;DHT22;10712;52.944;9.098;2023-03-01T12:51:54;7.00;69.00
21108;DHT22;10712;52.944;9.098;2023-03-01T12:54:28;7.10;69.10
21108;DHT22;10712;52.944;9.098;2023-03-01T12:57:25;7.10;69.00
21108;DHT22;10712;52.944;9.098;2023-03-01T13:00:27;7.20;68.90
21108;DHT22;10712;52.944;9.098;2023-03-01T13:03:18;7.20;68.60
21108;DHT22;10712;52.944;9.098;2023-03-01T13:06:06;7.30;68.30
21108;DHT22;10712;52.944;9.098;2023-03-01T13:17:50;7.60;66.10
21108;DHT22;10712;52.944;9.098;2023-03-01T13:20:46;7.60;66.30
21108;DHT22;10712;52.944;9.098;2023-03-01T13:31:01;7.70;66.20
21108;DHT22;10712;52.944;9.098;2023-03-01T13:35:58;7.80;66.20
21108;DHT22;10712;52.944;9.098;2023-03-01T13:38:47;7.70;65.90
21108;DHT22;10712;52.944;9.098;2023-03-01T13:44:38;7.70;66.30
21108;DHT22;10712;52.944;9.098;2023-03-01T13:47:16;7.70;66.30
21108;DHT22;10712;52.944;9.098;2023-03-01T13:52:42;7.70;66.40
21108;DHT22;10712;52.944;9.098;2023-03-01T13:55:24;7.70;66.50
21108;DHT22;10712;52.944;9.098;2023-03-01T13:58:13;7.80;66.60
21108;DHT22;10712;52.944;9.098;2023-03-01T14:00:42;7.80;66.80
21108;DHT22;10712;52.944;9.098;2023-03-01T14:05:43;7.80;67.20
21108;DHT22;10712;52.944;9.098;2023-03-01T14:08:33;7.80;67.30
21108;DHT22;10712;52.944;9.098;2023-03-01T14:19:59;7.60;67.80
21108;DHT22;10712;52.944;9.098;2023-03-01T14:22:34;7.60;68.00
21108;DHT22;10712;52.944;9.098;2023-03-01T14:25:03;7.60;68.10
21108;DHT22;10712;52.944;9.098;2023-03-01T14:27:39;7.60;68.00
21108;DHT22;10712;52.944;9.098;2023-03-01T14:30:14;7.60;68.00
21108;DHT22;10712;52.944;9.098;2023-03-01T14:32:56;7.60;68.10
21108;DHT22;10712;52.944;9.098;2023-03-01T14:35:35;7.60;68.30
21108;DHT22;10712;52.944;9.098;2023-03-01T14:38:02;7.60;68.60
21108;DHT22;10712;52.944;9.098;2023-03-01T14:40:34;7.60;68.90
21108;DHT22;10712;52.944;9.098;2023-03-01T14:43:11;7.60;69.10
21108;DHT22;10712;52.944;9.098;2023-03-01T14:45:47;7.60;68.80
21108;DHT22;10712;52.944;9.098;2023-03-01T14:48:15;7.60;68.70
21108;DHT22;10712;52.944;9.098;2023-03-01T14:50:42;7.60;68.70
21108;DHT22;10712;52.944;9.098;2023-03-01T14:53:18;7.60;68.80
21108;DHT22;10712;52.944;9.098;2023-03-01T14:55:50;7.60;68.90
21108;DHT22;10712;52.944;9.098;2023-03-01T14:58:24;7.60;68.80
21108;DHT22;10712;52.944;9.098;2023-03-01T15:00:59;7.60;68.80
21108;DHT22;10712;52.944;9.098;2023-03-01T15:06:07;7.60;68.90
21108;DHT22;10712;52.944;9.098;2023-03-01T15:08:35;7.60;68.90
21108;DHT22;10712;52.944;9.098;2023-03-01T15:11:05;7.60;69.00
21108;DHT22;10712;52.944;9.098;2023-03-01T15:13:44;7.60;69.10
21108;DHT22;10712;52.944;9.098;2023-03-01T15:16:30;7.60;69.30
21108;DHT22;10712;52.944;9.098;2023-03-01T15:21:31;7.50;69.30
21108;DHT22;10712;52.944;9.098;2023-03-01T15:24:20;7.50;69.40
21108;DHT22;10712;52.944;9.098;2023-03-01T15:26:57;7.50;69.70
21108;DHT22;10712;52.944;9.098;2023-03-01T15:29:29;7.40;69.90
21108;DHT22;10712;52.944;9.098;2023-03-01T15:31:59;7.40;70.00
21108;DHT22;10712;52.944;9.098;2023-03-01T15:34:30;7.30;70.00
21108;DHT22;10712;52.944;9.098;2023-03-01T15:37:00;7.30;70.10
21108;DHT22;10712;52.944;9.098;2023-03-01T15:39:40;7.30;70.30
21108;DHT22;10712;52.944;9.098;2023-03-01T15:47:54;7.20;70.70
21108;DHT22;10712;52.944;9.098;2023-03-01T15:50:33;7.20;70.80
21108;DHT22;10712;52.944;9.098;2023-03-01T15:53:05;7.20;70.90
21108;DHT22;10712;52.944;9.098;2023-03-01T15:55:32;7.10;71.00
21108;DHT22;10712;52.944;9.098;2023-03-01T16:00:47;7.00;71.40
21108;DHT22;10712;52.944;9.098;2023-03-01T16:03:17;7.00;71.60
21108;DHT22;10712;52.944;9.098;2023-03-01T16:05:50;7.00;71.80
21108;DHT22;10712;52.944;9.098;2023-03-01T16:08:17;7.00;72.00
21108;DHT22;10712;52.944;9.098;2023-03-01T16:10:44;6.90;72.20
21108;DHT22;10712;52.944;9.098;2023-03-01T16:13:14;6.90;72.40
21108;DHT22;10712;52.944;9.098;2023-03-01T16:15:40;6.80;72.70
21108;DHT22;10712;52.944;9.098;2023-03-01T16:18:07;6.80;73.00
21108;DHT22;10712;52.944;9.098;2023-03-01T16:20:35;6.70;73.30
21108;DHT22;10712;52.944;9.098;2023-03-01T16:23:03;6.70;73.80
21108;DHT22;10712;52.944;9.098;2023-03-01T16:25:31;6.60;74.10
21108;DHT22;10712;52.944;9.098;2023-03-01T16:27:58;6.60;74.70
21108;DHT22;10712;52.944;9.098;2023-03-01T16:30:26;6.50;74.90
21108;DHT22;10712;52.944;9.098;2023-03-01T16:32:52;6.50;75.10
21108;DHT22;10712;52.944;9.098;2023-03-01T16:35:20;6.40;75.40
21108;DHT22;10712;52.944;9.098;2023-03-01T16:37:47;6.30;75.60
21108;DHT22;10712;52.944;9.098;2023-03-01T16:40:19;6.20;76.00
21108;DHT22;10712;52.944;9.098;2023-03-01T16:42:49;6.20;76.40
21108;DHT22;10712;52.944;9.098;2023-03-01T16:45:15;6.10;76.70
21108;DHT22;10712;52.944;9.098;2023-03-01T16:47:42;6.10;76.70
21108;DHT22;10712;52.944;9.098;2023-03-01T16:50:08;6.00;76.80
21108;DHT22;10712;52.944;9.098;2023-03-01T16:52:35;5.90;77.10
21108;DHT22;10712;52.944;9.098;2023-03-01T16:55:03;5.80;77.30
21108;DHT22;10712;52.944;9.098;2023-03-01T16:57:30;5.70;77.40
21108;DHT22;10712;52.944;9.098;2023-03-01T16:59:58;5.70;77.60
21108;DHT22;10712;52.944;9.098;2023-03-01T17:02:24;5.60;77.80
21108;DHT22;10712;52.944;9.098;2023-03-01T17:04:54;5.50;78.00
21108;DHT22;10712;52.944;9.098;2023-03-01T17:07:22;5.50;78.30
21108;DHT22;10712;52.944;9.098;2023-03-01T17:09:48;5.40;78.50
21108;DHT22;10712;52.944;9.098;2023-03-01T17:12:14;5.40;78.60
21108;DHT22;10712;52.944;9.098;2023-03-01T17:14:41;5.30;78.70
21108;DHT22;10712;52.944;9.098;2023-03-01T17:17:11;5.20;79.00
21108;DHT22;10712;52.944;9.098;2023-03-01T17:19:37;5.20;79.20
21108;DHT22;10712;52.944;9.098;2023-03-01T17:22:09;5.10;79.40
21108;DHT22;10712;52.944;9.098;2023-03-01T17:24:37;5.00;79.90
21108;DHT22;10712;52.944;9.098;2023-03-01T17:27:05;5.00;80.00
21108;DHT22;10712;52.944;9.098;2023-03-01T17:29:32;4.90;80.30
21108;DHT22;10712;52.944;9.098;2023-03-01T17:31:59;4.80;80.70
21108;DHT22;10712;52.944;9.098;2023-03-01T17:34:25;4.80;81.00
21108;DHT22;10712;52.944;9.098;2023-03-01T17:36:51;4.80;81.10
21108;DHT22;10712;52.944;9.098;2023-03-01T17:39:18;4.70;81.20
21108;DHT22;10712;52.944;9.098;2023-03-01T17:41:51;4.60;81.30
21108;DHT22;10712;52.944;9.098;2023-03-01T17:44:17;4.60;81.70
21108;DHT22;10712;52.944;9.098;2023-03-01T17:46:43;4.50;81.90
21108;DHT22;10712;52.944;9.098;2023-03-01T17:49:09;4.50;82.30
21108;DHT22;10712;52.944;9.098;2023-03-01T17:51:35;4.40;82.50
21108;DHT22;10712;52.944;9.098;2023-03-01T17:54:01;4.40;82.90
21108;DHT22;10712;52.944;9.098;2023-03-01T17:56:27;4.30;83.10
21108;DHT22;10712;52.944;9.098;2023-03-01T17:58:53;4.30;83.20
21108;DHT22;10712;52.944;9.098;2023-03-01T18:01:20;4.20;83.30
21108;DHT22;10712;52.944;9.098;2023-03-01T18:03:50;4.20;83.40
21108;DHT22;10712;52.944;9.098;2023-03-01T18:06:22;4.10;83.50